sensor_id;sensor_type;location;lat;lon;timestamp;P1;durP1;ratioP1;P2;durP2;ratioP2
73023;SDS011;72676;47.526;8.538;2024-02-23T00:01:08;4.63;;;0.70;;
73023;SDS011;72676;47.526;8.538;2024-02-23T00:03:35;4.60;;;0.63;;
73023;SDS011;72676;47.526;8.538;2024-02-23T00:06:03;3.20;;;0.80;;
73023;SDS011;72676;47.526;8.538;2024-02-23T00:08:29;2.70;;;0.60;;
73023;SDS011;72676;47.526;8.538;2024-02-23T00:10:56;3.47;;;0.80;;
73023;SDS011;72676;47.526;8.538;2024-02-23T00:13:22;2.70;;;0.50;;
73023;SDS011;72676;47.526;8.538;2024-02-23T00:15:49;3.73;;;0.70;;
73023;SDS011;72676;47.526;8.538;2024-02-23T00:18:15;2.90;;;0.70;;
73023;SDS011;72676;47.526;8.538;2024-02-23T00:20:43;3.23;;;0.80;;
73023;SDS011;72676;47.526;8.538;2024-02-23T00:23:10;2.63;;;0.57;;
73023;SDS011;72676;47.526;8.538;2024-02-23T00:25:36;2.70;;;0.60;;
73023;SDS011;72676;47.526;8.538;2024-02-23T00:28:03;3.87;;;0.60;;
73023;SDS011;72676;47.526;8.538;2024-02-23T00:30:30;4.10;;;0.50;;
73023;SDS011;72676;47.526;8.538;2024-02-23T00:32:56;2.47;;;0.50;;
73023;SDS011;72676;47.526;8.538;2024-02-23T00:35:23;4.80;;;0.70;;
73023;SDS011;72676;47.526;8.538;2024-02-23T00:37:49;2.50;;;0.50;;
73023;SDS011;72676;47.526;8.538;2024-02-23T00:40:16;2.80;;;0.57;;
73023;SDS011;72676;47.526;8.538;2024-02-23T00:42:42;3.37;;;0.60;;
73023;SDS011;72676;47.526;8.538;2024-02-23T00:45:09;3.37;;;0.63;;
73023;SDS011;72676;47.526;8.538;2024-02-23T00:47:35;4.90;;;0.60;;
73023;SDS011;72676;47.526;8.538;2024-02-23T00:50:03;2.47;;;0.50;;
73023;SDS011;72676;47.526;8.538;2024-02-23T00:52:30;2.50;;;0.60;;
73023;SDS011;72676;47.526;8.538;2024-02-23T00:54:56;2.50;;;0.60;;
73023;SDS011;72676;47.526;8.538;2024-02-23T00:57:23;2.70;;;0.50;;
73023;SDS011;72676;47.526;8.538;2024-02-23T00:59:53;2.70;;;0.50;;
73023;SDS011;72676;47.526;8.538;2024-02-23T01:02:20;3.33;;;0.60;;
73023;SDS011;72676;47.526;8.538;2024-02-23T01:04:46;4.03;;;0.80;;
73023;SDS011;72676;47.526;8.538;2024-02-23T01:07:13;2.90;;;0.60;;
73023;SDS011;72676;47.526;8.538;2024-02-23T01:09:39;4.17;;;0.73;;
73023;SDS011;72676;47.526;8.538;2024-02-23T01:12:06;2.70;;;0.50;;
73023;SDS011;72676;47.526;8.538;2024-02-23T01:14:33;2.70;;;0.50;;
73023;SDS011;72676;47.526;8.538;2024-02-23T01:16:59;2.73;;;0.50;;
73023;SDS011;72676;47.526;8.538;2024-02-23T01:19:26;2.73;;;0.50;;
73023;SDS011;72676;47.526;8.538;2024-02-23T01:21:52;2.90;;;0.50;;
73023;SDS011;72676;47.526;8.538;2024-02-23T01:24:26;7.23;;;0.63;;
73023;SDS011;72676;47.526;8.538;2024-02-23T01:26:56;2.77;;;0.50;;
73023;SDS011;72676;47.526;8.538;2024-02-23T01:29:22;2.80;;;0.50;;
73023;SDS011;72676;47.526;8.538;2024-02-23T01:31:49;2.80;;;0.50;;
73023;SDS011;72676;47.526;8.538;2024-02-23T01:34:15;2.90;;;0.50;;
73023;SDS011;72676;47.526;8.538;2024-02-23T01:36:42;2.90;;;0.60;;
73023;SDS011;72676;47.526;8.538;2024-02-23T01:39:09;3.10;;;0.60;;
73023;SDS011;72676;47.526;8.538;2024-02-23T01:41:35;2.87;;;0.50;;
73023;SDS011;72676;47.526;8.538;2024-02-23T01:44:02;4.03;;;0.63;;
73023;SDS011;72676;47.526;8.538;2024-02-23T01:46:29;3.53;;;0.50;;
73023;SDS011;72676;47.526;8.538;2024-02-23T01:48:56;2.97;;;0.60;;
73023;SDS011;72676;47.526;8.538;2024-02-23T01:51:24;2.80;;;0.50;;
73023;SDS011;72676;47.526;8.538;2024-02-23T01:53:51;3.07;;;0.63;;
73023;SDS011;72676;47.526;8.538;2024-02-23T01:56:18;3.77;;;0.70;;
73023;SDS011;72676;47.526;8.538;2024-02-23T01:58:46;4.03;;;0.70;;
73023;SDS011;72676;47.526;8.538;2024-02-23T02:01:14;3.50;;;0.60;;
73023;SDS011;72676;47.526;8.538;2024-02-23T02:03:40;3.83;;;0.60;;
73023;SDS011;72676;47.526;8.538;2024-02-23T02:06:07;2.80;;;0.50;;
73023;SDS011;72676;47.526;8.538;2024-02-23T02:08:36;3.00;;;0.60;;
73023;SDS011;72676;47.526;8.538;2024-02-23T02:11:04;3.83;;;0.70;;
73023;SDS011;72676;47.526;8.538;2024-02-23T02:13:30;2.83;;;0.63;;
73023;SDS011;72676;47.526;8.538;2024-02-23T02:15:59;4.33;;;0.80;;
73023;SDS011;72676;47.526;8.538;2024-02-23T02:18:26;2.83;;;0.50;;
73023;SDS011;72676;47.526;8.538;2024-02-23T02:20:54;3.60;;;0.60;;
73023;SDS011;72676;47.526;8.538;2024-02-23T02:23:23;2.70;;;0.60;;
73023;SDS011;72676;47.526;8.538;2024-02-23T02:25:53;5.27;;;0.77;;
73023;SDS011;72676;47.526;8.538;2024-02-23T02:28:20;4.80;;;0.73;;
73023;SDS011;72676;47.526;8.538;2024-02-23T02:30:48;3.43;;;0.70;;
73023;SDS011;72676;47.526;8.538;2024-02-23T02:33:15;2.90;;;0.60;;
73023;SDS011;72676;47.526;8.538;2024-02-23T02:35:42;3.43;;;0.60;;
73023;SDS011;72676;47.526;8.538;2024-02-23T02:38:09;2.77;;;0.60;;
73023;SDS011;72676;47.526;8.538;2024-02-23T02:40:37;4.43;;;0.70;;
73023;SDS011;72676;47.526;8.538;2024-02-23T02:43:04;3.13;;;0.53;;
73023;SDS011;72676;47.526;8.538;2024-02-23T02:45:31;3.17;;;0.70;;
73023;SDS011;72676;47.526;8.538;2024-02-23T02:47:59;3.47;;;0.60;;
73023;SDS011;72676;47.526;8.538;2024-02-23T02:50:27;4.30;;;0.77;;
73023;SDS011;72676;47.526;8.538;2024-02-23T02:52:54;2.60;;;0.60;;
73023;SDS011;72676;47.526;8.538;2024-02-23T02:55:20;2.80;;;0.50;;
73023;SDS011;72676;47.526;8.538;2024-02-23T02:57:46;3.37;;;0.60;;
73023;SDS011;72676;47.526;8.538;2024-02-23T03:00:13;4.53;;;0.70;;
73023;SDS011;72676;47.526;8.538;2024-02-23T03:02:39;3.43;;;0.70;;
73023;SDS011;72676;47.526;8.538;2024-02-23T03:05:06;3.17;;;0.60;;
73023;SDS011;72676;47.526;8.538;2024-02-23T03:07:33;3.33;;;0.73;;
73023;SDS011;72676;47.526;8.538;2024-02-23T03:09:59;2.90;;;0.70;;
73023;SDS011;72676;47.526;8.538;2024-02-23T03:12:25;2.60;;;0.70;;
73023;SDS011;72676;47.526;8.538;2024-02-23T03:14:52;3.20;;;0.67;;
73023;SDS011;72676;47.526;8.538;2024-02-23T03:17:18;3.37;;;0.70;;
73023;SDS011;72676;47.526;8.538;2024-02-23T03:19:45;3.67;;;0.70;;
73023;SDS011;72676;47.526;8.538;2024-02-23T03:22:12;3.40;;;0.70;;
73023;SDS011;72676;47.526;8.538;2024-02-23T03:24:38;2.60;;;0.80;;
73023;SDS011;72676;47.526;8.538;2024-02-23T03:27:05;8.17;;;0.80;;
73023;SDS011;72676;47.526;8.538;2024-02-23T03:29:32;3.87;;;0.90;;
73023;SDS011;72676;47.526;8.538;2024-02-23T03:31:59;3.90;;;0.70;;
73023;SDS011;72676;47.526;8.538;2024-02-23T03:34:27;5.23;;;0.70;;
73023;SDS011;72676;47.526;8.538;2024-02-23T03:36:54;7.03;;;1.00;;
73023;SDS011;72676;47.526;8.538;2024-02-23T03:39:20;4.07;;;1.03;;
73023;SDS011;72676;47.526;8.538;2024-02-23T03:41:47;3.73;;;0.80;;
73023;SDS011;72676;47.526;8.538;2024-02-23T03:44:13;4.00;;;0.70;;
73023;SDS011;72676;47.526;8.538;2024-02-23T03:46:40;7.80;;;0.87;;
73023;SDS011;72676;47.526;8.538;2024-02-23T03:49:06;4.70;;;1.17;;
73023;SDS011;72676;47.526;8.538;2024-02-23T03:51:33;3.23;;;0.90;;
73023;SDS011;72676;47.526;8.538;2024-02-23T03:54:01;3.20;;;0.67;;
73023;SDS011;72676;47.526;8.538;2024-02-23T03:56:27;6.83;;;0.93;;
73023;SDS011;72676;47.526;8.538;2024-02-23T03:58:54;5.80;;;1.30;;
73023;SDS011;72676;47.526;8.538;2024-02-23T04:01:20;3.27;;;0.80;;
73023;SDS011;72676;47.526;8.538;2024-02-23T04:03:47;2.63;;;0.63;;
73023;SDS011;72676;47.526;8.538;2024-02-23T04:06:13;3.00;;;0.73;;
73023;SDS011;72676;47.526;8.538;2024-02-23T04:08:39;3.60;;;0.90;;
73023;SDS011;72676;47.526;8.538;2024-02-23T04:11:07;3.60;;;0.90;;
73023;SDS011;72676;47.526;8.538;2024-02-23T04:13:33;3.67;;;1.10;;
73023;SDS011;72676;47.526;8.538;2024-02-23T04:16:00;3.20;;;1.20;;
73023;SDS011;72676;47.526;8.538;2024-02-23T04:18:27;3.53;;;1.30;;
73023;SDS011;72676;47.526;8.538;2024-02-23T04:20:53;4.20;;;1.20;;
73023;SDS011;72676;47.526;8.538;2024-02-23T04:23:20;5.50;;;1.60;;
73023;SDS011;72676;47.526;8.538;2024-02-23T04:25:47;5.10;;;1.30;;
73023;SDS011;72676;47.526;8.538;2024-02-23T04:28:13;4.07;;;1.20;;
73023;SDS011;72676;47.526;8.538;2024-02-23T04:30:40;4.20;;;1.30;;
73023;SDS011;72676;47.526;8.538;2024-02-23T04:33:06;6.20;;;1.30;;
73023;SDS011;72676;47.526;8.538;2024-02-23T04:35:33;5.43;;;1.00;;
73023;SDS011;72676;47.526;8.538;2024-02-23T04:37:59;5.90;;;1.30;;
73023;SDS011;72676;47.526;8.538;2024-02-23T04:40:26;4.50;;;1.40;;
73023;SDS011;72676;47.526;8.538;2024-02-23T04:42:53;5.40;;;1.30;;
73023;SDS011;72676;47.526;8.538;2024-02-23T04:45:19;5.53;;;1.43;;
73023;SDS011;72676;47.526;8.538;2024-02-23T04:47:45;4.43;;;1.33;;
73023;SDS011;72676;47.526;8.538;2024-02-23T04:50:14;4.07;;;1.53;;
73023;SDS011;72676;47.526;8.538;2024-02-23T04:52:41;7.43;;;1.70;;
73023;SDS011;72676;47.526;8.538;2024-02-23T04:55:07;7.53;;;1.60;;
73023;SDS011;72676;47.526;8.538;2024-02-23T04:57:36;5.10;;;1.60;;
73023;SDS011;72676;47.526;8.538;2024-02-23T05:00:03;4.23;;;1.60;;
73023;SDS011;72676;47.526;8.538;2024-02-23T05:02:30;3.97;;;1.27;;
73023;SDS011;72676;47.526;8.538;2024-02-23T05:05:04;4.30;;;1.50;;
73023;SDS011;72676;47.526;8.538;2024-02-23T05:07:31;3.73;;;1.40;;
73023;SDS011;72676;47.526;8.538;2024-02-23T05:09:58;4.53;;;1.60;;
73023;SDS011;72676;47.526;8.538;2024-02-23T05:12:25;5.60;;;2.07;;
73023;SDS011;72676;47.526;8.538;2024-02-23T05:14:52;5.67;;;1.90;;
73023;SDS011;72676;47.526;8.538;2024-02-23T05:17:18;4.53;;;1.80;;
73023;SDS011;72676;47.526;8.538;2024-02-23T05:19:45;3.87;;;1.30;;
73023;SDS011;72676;47.526;8.538;2024-02-23T05:22:12;3.60;;;1.53;;
73023;SDS011;72676;47.526;8.538;2024-02-23T05:24:39;3.80;;;1.57;;
73023;SDS011;72676;47.526;8.538;2024-02-23T05:27:05;4.93;;;1.30;;
73023;SDS011;72676;47.526;8.538;2024-02-23T05:29:32;4.00;;;1.30;;
73023;SDS011;72676;47.526;8.538;2024-02-23T05:31:58;6.03;;;1.60;;
73023;SDS011;72676;47.526;8.538;2024-02-23T05:34:25;5.00;;;1.70;;
73023;SDS011;72676;47.526;8.538;2024-02-23T05:36:51;3.30;;;1.20;;
73023;SDS011;72676;47.526;8.538;2024-02-23T05:39:18;8.03;;;1.90;;
73023;SDS011;72676;47.526;8.538;2024-02-23T05:41:44;11.57;;;1.90;;
73023;SDS011;72676;47.526;8.538;2024-02-23T05:44:10;4.73;;;1.50;;
73023;SDS011;72676;47.526;8.538;2024-02-23T05:46:39;3.90;;;1.37;;
73023;SDS011;72676;47.526;8.538;2024-02-23T05:49:06;3.70;;;1.40;;
73023;SDS011;72676;47.526;8.538;2024-02-23T05:51:32;3.93;;;1.10;;
73023;SDS011;72676;47.526;8.538;2024-02-23T05:53:59;9.90;;;1.70;;
73023;SDS011;72676;47.526;8.538;2024-02-23T05:56:26;3.63;;;1.20;;
73023;SDS011;72676;47.526;8.538;2024-02-23T05:58:52;11.13;;;1.67;;
73023;SDS011;72676;47.526;8.538;2024-02-23T06:01:19;8.73;;;1.57;;
73023;SDS011;72676;47.526;8.538;2024-02-23T06:03:46;10.20;;;2.00;;
73023;SDS011;72676;47.526;8.538;2024-02-23T06:06:12;4.10;;;1.50;;
73023;SDS011;72676;47.526;8.538;2024-02-23T06:08:39;5.60;;;1.60;;
73023;SDS011;72676;47.526;8.538;2024-02-23T06:11:06;14.30;;;1.90;;
73023;SDS011;72676;47.526;8.538;2024-02-23T06:13:35;6.63;;;1.70;;
73023;SDS011;72676;47.526;8.538;2024-02-23T06:16:01;5.60;;;1.87;;
73023;SDS011;72676;47.526;8.538;2024-02-23T06:18:29;7.17;;;1.93;;
73023;SDS011;72676;47.526;8.538;2024-02-23T06:20:56;5.17;;;2.00;;
73023;SDS011;72676;47.526;8.538;2024-02-23T06:23:22;8.67;;;1.87;;
73023;SDS011;72676;47.526;8.538;2024-02-23T06:25:48;4.40;;;1.80;;
73023;SDS011;72676;47.526;8.538;2024-02-23T06:28:15;6.77;;;2.17;;
73023;SDS011;72676;47.526;8.538;2024-02-23T06:30:41;7.67;;;2.33;;
73023;SDS011;72676;47.526;8.538;2024-02-23T06:33:08;5.10;;;2.47;;
73023;SDS011;72676;47.526;8.538;2024-02-23T06:35:34;6.20;;;2.60;;
73023;SDS011;72676;47.526;8.538;2024-02-23T06:38:01;7.50;;;2.50;;
73023;SDS011;72676;47.526;8.538;2024-02-23T06:40:28;5.80;;;2.70;;
73023;SDS011;72676;47.526;8.538;2024-02-23T06:43:11;8.43;;;2.87;;
73023;SDS011;72676;47.526;8.538;2024-02-23T06:45:37;6.43;;;2.73;;
73023;SDS011;72676;47.526;8.538;2024-02-23T06:48:04;18.20;;;3.20;;
73023;SDS011;72676;47.526;8.538;2024-02-23T06:50:30;5.83;;;2.33;;
73023;SDS011;72676;47.526;8.538;2024-02-23T06:52:57;8.43;;;2.60;;
73023;SDS011;72676;47.526;8.538;2024-02-23T06:55:23;4.93;;;2.33;;
73023;SDS011;72676;47.526;8.538;2024-02-23T06:57:50;6.70;;;2.73;;
73023;SDS011;72676;47.526;8.538;2024-02-23T07:00:16;6.03;;;2.07;;
73023;SDS011;72676;47.526;8.538;2024-02-23T07:02:43;7.00;;;2.30;;
73023;SDS011;72676;47.526;8.538;2024-02-23T07:05:09;6.20;;;2.83;;
73023;SDS011;72676;47.526;8.538;2024-02-23T07:07:36;7.87;;;3.50;;
73023;SDS011;72676;47.526;8.538;2024-02-23T07:10:03;4.97;;;2.13;;
73023;SDS011;72676;47.526;8.538;2024-02-23T07:12:30;7.90;;;2.73;;
73023;SDS011;72676;47.526;8.538;2024-02-23T07:14:56;6.30;;;2.70;;
73023;SDS011;72676;47.526;8.538;2024-02-23T07:17:23;8.70;;;2.60;;
73023;SDS011;72676;47.526;8.538;2024-02-23T07:19:49;5.70;;;2.33;;
73023;SDS011;72676;47.526;8.538;2024-02-23T07:22:17;7.90;;;2.53;;
73023;SDS011;72676;47.526;8.538;2024-02-23T07:24:45;5.60;;;2.60;;
73023;SDS011;72676;47.526;8.538;2024-02-23T07:27:11;6.13;;;3.13;;
73023;SDS011;72676;47.526;8.538;2024-02-23T07:29:38;8.80;;;3.20;;
73023;SDS011;72676;47.526;8.538;2024-02-23T07:32:04;7.47;;;2.90;;
73023;SDS011;72676;47.526;8.538;2024-02-23T07:34:32;10.03;;;3.33;;
73023;SDS011;72676;47.526;8.538;2024-02-23T07:36:59;9.83;;;4.90;;
73023;SDS011;72676;47.526;8.538;2024-02-23T07:39:25;11.93;;;5.37;;
73023;SDS011;72676;47.526;8.538;2024-02-23T07:41:52;10.97;;;4.40;;
73023;SDS011;72676;47.526;8.538;2024-02-23T07:44:18;13.17;;;4.10;;
73023;SDS011;72676;47.526;8.538;2024-02-23T07:46:44;6.37;;;2.60;;
73023;SDS011;72676;47.526;8.538;2024-02-23T07:49:11;7.53;;;2.43;;
73023;SDS011;72676;47.526;8.538;2024-02-23T07:51:37;7.67;;;1.70;;
73023;SDS011;72676;47.526;8.538;2024-02-23T07:54:04;7.37;;;2.20;;
73023;SDS011;72676;47.526;8.538;2024-02-23T07:56:31;5.77;;;1.87;;
73023;SDS011;72676;47.526;8.538;2024-02-23T07:58:59;6.70;;;1.80;;
73023;SDS011;72676;47.526;8.538;2024-02-23T08:01:25;4.67;;;1.60;;
73023;SDS011;72676;47.526;8.538;2024-02-23T08:03:52;3.80;;;1.40;;
73023;SDS011;72676;47.526;8.538;2024-02-23T08:06:18;8.27;;;1.87;;
73023;SDS011;72676;47.526;8.538;2024-02-23T08:08:45;6.03;;;1.60;;
73023;SDS011;72676;47.526;8.538;2024-02-23T08:11:12;4.63;;;1.17;;
73023;SDS011;72676;47.526;8.538;2024-02-23T08:13:40;11.77;;;2.17;;
73023;SDS011;72676;47.526;8.538;2024-02-23T08:16:07;5.80;;;1.63;;
73023;SDS011;72676;47.526;8.538;2024-02-23T08:18:33;4.43;;;1.20;;
73023;SDS011;72676;47.526;8.538;2024-02-23T08:21:00;4.57;;;1.30;;
73023;SDS011;72676;47.526;8.538;2024-02-23T08:23:29;5.90;;;1.40;;
73023;SDS011;72676;47.526;8.538;2024-02-23T08:25:56;7.10;;;2.90;;
73023;SDS011;72676;47.526;8.538;2024-02-23T08:28:24;7.03;;;1.93;;
73023;SDS011;72676;47.526;8.538;2024-02-23T08:30:51;6.27;;;2.00;;
73023;SDS011;72676;47.526;8.538;2024-02-23T08:33:18;9.73;;;2.90;;
73023;SDS011;72676;47.526;8.538;2024-02-23T08:35:45;7.27;;;2.17;;
73023;SDS011;72676;47.526;8.538;2024-02-23T08:38:14;3.90;;;1.10;;
73023;SDS011;72676;47.526;8.538;2024-02-23T08:40:40;8.90;;;1.30;;
73023;SDS011;72676;47.526;8.538;2024-02-23T08:43:08;4.67;;;1.07;;
73023;SDS011;72676;47.526;8.538;2024-02-23T08:45:34;10.57;;;1.40;;
73023;SDS011;72676;47.526;8.538;2024-02-23T08:48:01;5.73;;;1.33;;
73023;SDS011;72676;47.526;8.538;2024-02-23T08:50:27;4.80;;;1.17;;
73023;SDS011;72676;47.526;8.538;2024-02-23T08:52:54;7.13;;;1.37;;
73023;SDS011;72676;47.526;8.538;2024-02-23T08:55:20;4.53;;;1.03;;
73023;SDS011;72676;47.526;8.538;2024-02-23T08:57:47;4.63;;;1.40;;
73023;SDS011;72676;47.526;8.538;2024-02-23T09:00:14;8.47;;;1.30;;
73023;SDS011;72676;47.526;8.538;2024-02-23T09:02:43;7.10;;;1.10;;
73023;SDS011;72676;47.526;8.538;2024-02-23T09:05:10;8.70;;;1.40;;
73023;SDS011;72676;47.526;8.538;2024-02-23T09:07:37;10.80;;;1.77;;
73023;SDS011;72676;47.526;8.538;2024-02-23T09:10:04;5.77;;;1.50;;
73023;SDS011;72676;47.526;8.538;2024-02-23T09:12:31;7.73;;;1.43;;
73023;SDS011;72676;47.526;8.538;2024-02-23T09:14:57;4.57;;;1.20;;
73023;SDS011;72676;47.526;8.538;2024-02-23T09:17:24;9.63;;;1.63;;
73023;SDS011;72676;47.526;8.538;2024-02-23T09:19:51;5.33;;;1.30;;
73023;SDS011;72676;47.526;8.538;2024-02-23T09:22:18;10.83;;;1.37;;
73023;SDS011;72676;47.526;8.538;2024-02-23T09:24:44;6.00;;;1.30;;
73023;SDS011;72676;47.526;8.538;2024-02-23T09:27:11;6.80;;;1.60;;
73023;SDS011;72676;47.526;8.538;2024-02-23T09:29:37;7.70;;;1.67;;
73023;SDS011;72676;47.526;8.538;2024-02-23T09:32:04;7.13;;;1.57;;
73023;SDS011;72676;47.526;8.538;2024-02-23T09:34:31;6.60;;;1.60;;
73023;SDS011;72676;47.526;8.538;2024-02-23T09:36:58;5.30;;;1.63;;
73023;SDS011;72676;47.526;8.538;2024-02-23T09:39:24;8.53;;;1.50;;
73023;SDS011;72676;47.526;8.538;2024-02-23T09:41:54;5.47;;;1.13;;
73023;SDS011;72676;47.526;8.538;2024-02-23T09:44:21;6.73;;;1.63;;
73023;SDS011;72676;47.526;8.538;2024-02-23T09:46:48;6.50;;;1.20;;
73023;SDS011;72676;47.526;8.538;2024-02-23T09:49:15;5.00;;;1.00;;
73023;SDS011;72676;47.526;8.538;2024-02-23T09:51:45;4.93;;;1.47;;
73023;SDS011;72676;47.526;8.538;2024-02-23T09:54:11;4.13;;;0.90;;
73023;SDS011;72676;47.526;8.538;2024-02-23T09:56:38;5.40;;;1.10;;
73023;SDS011;72676;47.526;8.538;2024-02-23T09:59:05;10.23;;;1.50;;
73023;SDS011;72676;47.526;8.538;2024-02-23T10:01:32;3.70;;;1.20;;
73023;SDS011;72676;47.526;8.538;2024-02-23T10:04:00;8.23;;;1.73;;
73023;SDS011;72676;47.526;8.538;2024-02-23T10:06:28;6.37;;;1.30;;
73023;SDS011;72676;47.526;8.538;2024-02-23T10:08:55;9.70;;;1.60;;
73023;SDS011;72676;47.526;8.538;2024-02-23T10:11:23;9.97;;;1.43;;
73023;SDS011;72676;47.526;8.538;2024-02-23T10:13:50;11.13;;;1.27;;
73023;SDS011;72676;47.526;8.538;2024-02-23T10:16:18;6.67;;;1.30;;
73023;SDS011;72676;47.526;8.538;2024-02-23T10:18:49;6.03;;;1.10;;
73023;SDS011;72676;47.526;8.538;2024-02-23T10:21:16;7.77;;;1.60;;
73023;SDS011;72676;47.526;8.538;2024-02-23T10:23:46;7.37;;;1.00;;
73023;SDS011;72676;47.526;8.538;2024-02-23T10:26:14;3.90;;;1.10;;
73023;SDS011;72676;47.526;8.538;2024-02-23T10:28:45;5.00;;;1.40;;
73023;SDS011;72676;47.526;8.538;2024-02-23T10:31:13;3.70;;;1.30;;
73023;SDS011;72676;47.526;8.538;2024-02-23T10:33:39;6.13;;;1.50;;
73023;SDS011;72676;47.526;8.538;2024-02-23T10:36:06;4.57;;;1.43;;
73023;SDS011;72676;47.526;8.538;2024-02-23T10:38:37;14.03;;;1.67;;
73023;SDS011;72676;47.526;8.538;2024-02-23T10:41:08;3.70;;;1.17;;
73023;SDS011;72676;47.526;8.538;2024-02-23T10:43:41;11.63;;;1.93;;
73023;SDS011;72676;47.526;8.538;2024-02-23T10:46:11;8.37;;;2.10;;
73023;SDS011;72676;47.526;8.538;2024-02-23T10:48:43;5.70;;;1.40;;
73023;SDS011;72676;47.526;8.538;2024-02-23T10:51:13;9.37;;;1.50;;
73023;SDS011;72676;47.526;8.538;2024-02-23T10:53:46;3.40;;;1.20;;
73023;SDS011;72676;47.526;8.538;2024-02-23T10:56:13;6.47;;;1.23;;
73023;SDS011;72676;47.526;8.538;2024-02-23T10:58:39;8.50;;;1.57;;
73023;SDS011;72676;47.526;8.538;2024-02-23T11:01:06;3.20;;;1.03;;
73023;SDS011;72676;47.526;8.538;2024-02-23T11:03:35;3.03;;;1.00;;
73023;SDS011;72676;47.526;8.538;2024-02-23T11:06:06;5.53;;;1.23;;
73023;SDS011;72676;47.526;8.538;2024-02-23T11:08:34;5.60;;;1.20;;
73023;SDS011;72676;47.526;8.538;2024-02-23T11:11:08;3.67;;;1.13;;
73023;SDS011;72676;47.526;8.538;2024-02-23T11:13:39;4.47;;;1.07;;
73023;SDS011;72676;47.526;8.538;2024-02-23T11:16:06;5.63;;;0.93;;
73023;SDS011;72676;47.526;8.538;2024-02-23T11:18:39;4.27;;;0.97;;
73023;SDS011;72676;47.526;8.538;2024-02-23T11:21:08;2.00;;;0.90;;
73023;SDS011;72676;47.526;8.538;2024-02-23T11:23:42;5.00;;;1.50;;
73023;SDS011;72676;47.526;8.538;2024-02-23T11:26:11;3.17;;;1.00;;
73023;SDS011;72676;47.526;8.538;2024-02-23T11:28:57;5.73;;;1.03;;
73023;SDS011;72676;47.526;8.538;2024-02-23T11:31:24;4.27;;;1.47;;
73023;SDS011;72676;47.526;8.538;2024-02-23T11:33:55;6.77;;;1.50;;
73023;SDS011;72676;47.526;8.538;2024-02-23T11:38:53;3.57;;;1.20;;
73023;SDS011;72676;47.526;8.538;2024-02-23T11:41:22;3.13;;;1.10;;
73023;SDS011;72676;47.526;8.538;2024-02-23T11:43:53;3.17;;;0.93;;
73023;SDS011;72676;47.526;8.538;2024-02-23T11:46:21;6.40;;;1.37;;
73023;SDS011;72676;47.526;8.538;2024-02-23T11:48:48;7.30;;;1.30;;
73023;SDS011;72676;47.526;8.538;2024-02-23T11:51:22;6.07;;;1.60;;
73023;SDS011;72676;47.526;8.538;2024-02-23T11:53:50;5.50;;;1.20;;
73023;SDS011;72676;47.526;8.538;2024-02-23T11:56:17;7.10;;;1.20;;
73023;SDS011;72676;47.526;8.538;2024-02-23T11:58:46;3.70;;;1.20;;
73023;SDS011;72676;47.526;8.538;2024-02-23T12:01:13;3.23;;;1.00;;
73023;SDS011;72676;47.526;8.538;2024-02-23T12:03:39;4.83;;;1.40;;
73023;SDS011;72676;47.526;8.538;2024-02-23T12:06:07;4.93;;;1.10;;
73023;SDS011;72676;47.526;8.538;2024-02-23T12:08:33;3.53;;;1.30;;
73023;SDS011;72676;47.526;8.538;2024-02-23T12:11:11;8.83;;;1.57;;
73023;SDS011;72676;47.526;8.538;2024-02-23T12:13:38;7.70;;;2.50;;
73023;SDS011;72676;47.526;8.538;2024-02-23T12:16:06;4.70;;;1.30;;
73023;SDS011;72676;47.526;8.538;2024-02-23T12:18:34;6.20;;;1.00;;
73023;SDS011;72676;47.526;8.538;2024-02-23T12:21:04;3.83;;;1.07;;
73023;SDS011;72676;47.526;8.538;2024-02-23T12:23:42;3.03;;;1.10;;
73023;SDS011;72676;47.526;8.538;2024-02-23T12:26:10;6.60;;;1.00;;
73023;SDS011;72676;47.526;8.538;2024-02-23T12:28:40;3.80;;;0.90;;
73023;SDS011;72676;47.526;8.538;2024-02-23T12:31:07;3.10;;;1.10;;
73023;SDS011;72676;47.526;8.538;2024-02-23T12:33:34;9.77;;;1.10;;
73023;SDS011;72676;47.526;8.538;2024-02-23T12:36:03;5.73;;;1.10;;
73023;SDS011;72676;47.526;8.538;2024-02-23T12:38:30;2.20;;;0.93;;
73023;SDS011;72676;47.526;8.538;2024-02-23T12:40:57;5.10;;;1.13;;
73023;SDS011;72676;47.526;8.538;2024-02-23T12:43:25;4.63;;;1.50;;
73023;SDS011;72676;47.526;8.538;2024-02-23T12:45:52;2.73;;;0.90;;
73023;SDS011;72676;47.526;8.538;2024-02-23T12:48:20;3.43;;;1.00;;
73023;SDS011;72676;47.526;8.538;2024-02-23T12:50:47;5.20;;;1.00;;
73023;SDS011;72676;47.526;8.538;2024-02-23T12:53:31;4.33;;;1.10;;
73023;SDS011;72676;47.526;8.538;2024-02-23T12:56:00;2.80;;;1.10;;
73023;SDS011;72676;47.526;8.538;2024-02-23T12:58:28;1.50;;;0.90;;
73023;SDS011;72676;47.526;8.538;2024-02-23T13:00:55;7.67;;;1.10;;
73023;SDS011;72676;47.526;8.538;2024-02-23T13:03:22;7.33;;;1.17;;
73023;SDS011;72676;47.526;8.538;2024-02-23T13:05:49;2.40;;;0.90;;
73023;SDS011;72676;47.526;8.538;2024-02-23T13:08:16;4.83;;;0.93;;
73023;SDS011;72676;47.526;8.538;2024-02-23T13:10:43;6.03;;;1.43;;
73023;SDS011;72676;47.526;8.538;2024-02-23T13:13:10;4.70;;;1.07;;
73023;SDS011;72676;47.526;8.538;2024-02-23T13:15:37;2.73;;;0.90;;
73023;SDS011;72676;47.526;8.538;2024-02-23T13:18:04;6.47;;;1.20;;
73023;SDS011;72676;47.526;8.538;2024-02-23T13:20:30;2.53;;;0.83;;
73023;SDS011;72676;47.526;8.538;2024-02-23T13:22:57;3.93;;;1.27;;
73023;SDS011;72676;47.526;8.538;2024-02-23T13:25:24;5.33;;;1.07;;
73023;SDS011;72676;47.526;8.538;2024-02-23T13:27:50;5.70;;;1.97;;
73023;SDS011;72676;47.526;8.538;2024-02-23T13:30:17;3.70;;;1.10;;
73023;SDS011;72676;47.526;8.538;2024-02-23T13:32:43;5.90;;;1.30;;
73023;SDS011;72676;47.526;8.538;2024-02-23T13:35:10;11.97;;;1.30;;
73023;SDS011;72676;47.526;8.538;2024-02-23T13:37:36;5.17;;;1.13;;
73023;SDS011;72676;47.526;8.538;2024-02-23T13:40:03;4.83;;;1.23;;
73023;SDS011;72676;47.526;8.538;2024-02-23T13:42:32;8.00;;;2.00;;
73023;SDS011;72676;47.526;8.538;2024-02-23T13:44:58;7.83;;;1.97;;
73023;SDS011;72676;47.526;8.538;2024-02-23T13:47:26;9.40;;;1.90;;
73023;SDS011;72676;47.526;8.538;2024-02-23T13:49:53;2.70;;;1.30;;
73023;SDS011;72676;47.526;8.538;2024-02-23T13:52:19;5.80;;;1.33;;
73023;SDS011;72676;47.526;8.538;2024-02-23T13:54:46;4.67;;;1.60;;
73023;SDS011;72676;47.526;8.538;2024-02-23T13:57:12;3.87;;;1.10;;
73023;SDS011;72676;47.526;8.538;2024-02-23T13:59:39;1.80;;;0.83;;
73023;SDS011;72676;47.526;8.538;2024-02-23T14:02:05;7.40;;;2.70;;
73023;SDS011;72676;47.526;8.538;2024-02-23T14:04:32;4.13;;;1.57;;
73023;SDS011;72676;47.526;8.538;2024-02-23T14:06:59;11.60;;;2.37;;
73023;SDS011;72676;47.526;8.538;2024-02-23T14:09:25;5.87;;;2.57;;
73023;SDS011;72676;47.526;8.538;2024-02-23T14:11:52;3.27;;;1.90;;
73023;SDS011;72676;47.526;8.538;2024-02-23T14:14:19;11.27;;;1.17;;
73023;SDS011;72676;47.526;8.538;2024-02-23T14:16:46;4.40;;;1.00;;
73023;SDS011;72676;47.526;8.538;2024-02-23T14:19:12;5.50;;;1.37;;
73023;SDS011;72676;47.526;8.538;2024-02-23T14:21:39;4.27;;;1.50;;
73023;SDS011;72676;47.526;8.538;2024-02-23T14:24:05;3.60;;;1.47;;
73023;SDS011;72676;47.526;8.538;2024-02-23T14:26:32;6.70;;;1.60;;
73023;SDS011;72676;47.526;8.538;2024-02-23T14:28:59;12.50;;;4.63;;
73023;SDS011;72676;47.526;8.538;2024-02-23T14:31:26;11.23;;;3.67;;
73023;SDS011;72676;47.526;8.538;2024-02-23T14:33:52;5.07;;;1.40;;
73023;SDS011;72676;47.526;8.538;2024-02-23T14:36:19;9.93;;;2.23;;
73023;SDS011;72676;47.526;8.538;2024-02-23T14:38:45;3.53;;;1.40;;
73023;SDS011;72676;47.526;8.538;2024-02-23T14:41:12;2.73;;;1.23;;
73023;SDS011;72676;47.526;8.538;2024-02-23T14:43:39;7.80;;;2.03;;
73023;SDS011;72676;47.526;8.538;2024-02-23T14:46:05;9.53;;;4.73;;
73023;SDS011;72676;47.526;8.538;2024-02-23T14:48:32;8.70;;;2.60;;
73023;SDS011;72676;47.526;8.538;2024-02-23T14:50:58;7.63;;;1.70;;